Data for 10/07/2010

Time Sea-Level Adjusted Pressure Absolute Pressure Temperature Relative Humidity Dew Point   
(mb) (inHg) (mb) (inHg) (C) (F) (%) (C) (F)
00:05 1020 30.12 849 25.07 13.7 56.7 70 8.3 47
00:10 1020 30.12 849 25.07 13.1 55.7 72 8.3 47
00:15 1020 30.12 849 25.07 12.9 55.1 72 7.9 46.3
00:20 1020 30.12 849 25.07 12.6 54.7 74 8.1 46.7
00:25 1020 30.12 849 25.07 12.2 54 71 7.1 44.8
00:30 1020 30.12 849 25.07 13.1 55.6 69 7.7 45.8
00:35 1020 30.12 849 25.07 13.1 55.6 70 7.8 46.1
00:40 1020 30.12 849 25.07 13 55.5 68 7.3 45.2
00:45 1020 30.12 849 25.07 13.4 56.1 68 7.6 45.6
00:50 1020 30.12 849 25.07 13.4 56 69 7.8 46
00:55 1020 30.12 849 25.07 12.7 54.9 70 7.4 45.3
01:00 1020 30.12 849 25.07 12.9 55.3 69 7.4 45.3
01:05 1020 30.12 849 25.07 13.1 55.6 68 7.3 45.2
01:10 1020 30.12 849 25.07 12.8 55 70 7.4 45.3
01:15 1020 30.12 849 25.07 12.2 53.9 73 7.6 45.6
01:20 1020 30.12 849 25.07 12 53.6 73 7.4 45.3
01:25 1020 30.12 849 25.07 12.2 53.9 70 7 44.6
01:30 1020 30.12 849 25.07 12.7 54.9 71 7.6 45.7
01:35 1020 30.12 849 25.07 12.2 54 72 7.3 45.1
01:40 1020 30.12 849 25.07 12.4 54.3 71 7.3 45.2
01:45 1020 30.12 849 25.07 12.4 54.4 70 7.1 44.8
01:50 1019 30.09 849 25.07 12.5 54.5 70 7.2 45
01:55 1019 30.09 849 25.07 12.9 55.1 68 7.2 45
02:00 1019 30.09 849 25.07 12.4 54.4 70 7.2 45
02:05 1019 30.09 849 25.07 12.5 54.5 70 7.2 45
02:10 1019 30.09 849 25.07 11.9 53.4 71 6.8 44.3
02:15 1019 30.09 849 25.07 11.9 53.5 72 7 44.6
02:20 1019 30.09 849 25.07 12.5 54.5 69 7 44.7
02:25 1019 30.09 849 25.07 12.4 54.4 71 7.3 45.1
02:30 1019 30.09 849 25.07 11.3 52.3 74 6.9 44.4
02:35 1020 30.12 849 25.07 10.9 51.6 75 6.6 44
02:40 1019 30.09 849 25.07 11.4 52.6 70 6.2 43.1
02:45 1020 30.12 849 25.07 12 53.6 71 6.9 44.4
02:50 1020 30.12 849 25.07 11.3 52.3 73 6.6 43.9
02:55 1020 30.12 849 25.07 10.9 51.6 74 6.4 43.5
03:00 1020 30.12 849 25.07 10.9 51.6 72 6.1 43
03:05 1020 30.12 849 25.07 10.8 51.5 73 6.2 43.1
03:10 1020 30.12 849 25.07 11.1 51.9 72 6.3 43.3
03:15 1020 30.12 849 25.07 11.1 52 73 6.4 43.6
03:20 1020 30.12 849 25.07 11.3 52.3 73 6.7 44
03:25 1020 30.12 849 25.07 11.4 52.4 72 6.5 43.7
03:30 1020 30.12 849 25.07 11.3 52.3 73 6.5 43.8
03:35 1020 30.12 849 25.07 11.3 52.3 72 6.5 43.7
03:40 1020 30.12 849 25.07 11.3 52.3 72 6.4 43.6
03:45 1019 30.09 849 25.07 11.2 52.2 74 6.7 44
03:50 1019 30.09 849 25.07 10.8 51.4 76 6.7 44.1
03:55 1019 30.09 849 25.07 10.4 50.8 77 6.5 43.8
04:00 1019 30.09 849 25.07 10.2 50.3 77 6.4 43.5
04:05 1019 30.09 849 25.07 9.8 49.7 78 6.3 43.3
04:10 1019 30.09 849 25.07 9.5 49 79 6.1 42.9
04:15 1019 30.09 848 25.04 9.8 49.6 79 6.3 43.4
04:20 1019 30.09 848 25.04 10.1 50.2 76 6.1 43
04:25 1019 30.09 849 25.07 10.1 50.2 78 6.4 43.5
04:30 1019 30.09 849 25.07 10.2 50.4 77 6.4 43.5
04:35 1019 30.09 849 25.07 9.8 49.6 80 6.5 43.7
04:40 1019 30.09 849 25.07 9.7 49.5 80 6.5 43.7
04:45 1019 30.09 849 25.07 10 50 78 6.4 43.6
04:50 1019 30.09 849 25.07 9.5 49.1 81 6.5 43.7
04:55 1020 30.12 849 25.07 9.3 48.7 82 6.4 43.5
05:00 1020 30.12 849 25.07 9.9 49.8 79 6.5 43.6
05:05 1020 30.12 849 25.07 9.8 49.7 79 6.4 43.4
05:10 1020 30.12 849 25.07 9.6 49.3 79 6.2 43.1
05:15 1020 30.12 849 25.07 10 49.9 78 6.3 43.3
05:20 1020 30.12 849 25.07 10.2 50.3 76 6.1 43
05:25 1020 30.12 849 25.07 9.8 49.6 76 5.7 42.3
05:30 1020 30.12 849 25.07 9.4 49 79 6 42.7
05:35 1020 30.12 849 25.07 8.7 47.7 82 5.8 42.5
05:40 1020 30.12 849 25.07 8.7 47.6 83 5.9 42.6
05:45 1020 30.12 849 25.07 8.4 47 85 6 42.8
05:50 1020 30.12 849 25.07 9.1 48.3 80 5.8 42.4
05:55 1020 30.12 849 25.07 9.1 48.4 80 5.9 42.7
06:00 1020 30.12 849 25.07 9.1 48.4 78 5.6 42
06:05 1020 30.12 849 25.07 9.3 48.7 78 5.6 42.1
06:10 1020 30.12 849 25.07 9.5 49.1 79 6.1 43
06:15 1020 30.12 849 25.07 8.8 47.8 83 6.1 43
06:20 1020 30.12 849 25.07 9.1 48.3 82 6.1 43
06:25 1020 30.12 849 25.07 9 48.2 82 6 42.9
06:30 1020 30.12 849 25.07 9 48.3 82 6.1 43
06:35 1020 30.12 849 25.07 9 48.1 81 5.9 42.7
06:40 1020 30.12 849 25.07 9 48.2 82 6 42.9
06:45 1020 30.12 849 25.07 8.6 47.6 80 5.5 41.9
06:50 1020 30.12 849 25.07 9 48.2 80 5.7 42.3
06:55 1020 30.12 849 25.07 9.7 49.5 76 5.8 42.5
07:00 1020 30.12 849 25.07 9.5 49.2 74 5.2 41.3
07:05 1020 30.12 849 25.07 11.1 51.9 73 6.5 43.7
07:10 1020 30.12 849 25.07 11.2 52.2 70 6 42.8
07:15 1020 30.12 849 25.07 11.3 52.4 71 6.4 43.5
07:20 1020 30.12 849 25.07 9.7 49.4 76 5.7 42.3
07:25 1020 30.12 849 25.07 8.6 47.4 81 5.4 41.8
07:30 1020 30.12 849 25.07 8.8 47.9 79 5.4 41.8
07:35 1020 30.12 849 25.07 9.8 49.7 73 5.3 41.5
07:40 1020 30.12 849 25.07 9.2 48.6 76 5.3 41.5
07:45 1020 30.12 849 25.07 9.8 49.6 73 5.3 41.5
07:50 1020 30.12 849 25.07 9.9 49.9 73 5.4 41.7
07:55 1020 30.12 849 25.07 9.5 49.2 73 5 41
08:00 1020 30.12 849 25.07 9.1 48.4 76 5.1 41.1
08:05 1020 30.12 849 25.07 9.9 49.7 72 5.1 41.2
08:10 1020 30.12 849 25.07 9.8 49.6 73 5.1 41.3
08:15 1020 30.12 849 25.07 10 50 74 5.5 41.9
08:20 1020 30.12 849 25.07 10 50 71 5 41
08:25 1020 30.12 849 25.07 10.8 51.4 69 5.4 41.7
08:30 1020 30.12 849 25.07 10.4 50.7 69 5 41.1
08:35 1020 30.12 849 25.07 10.4 50.7 71 5.3 41.5
08:40 1020 30.12 849 25.07 10.1 50.2 71 5 41
08:45 1020 30.12 849 25.07 10.4 50.7 70 5.1 41.2
08:50 1020 30.12 849 25.07 10.8 51.4 68 5.2 41.4
08:55 1020 30.12 849 25.07 11 51.7 68 5.4 41.7
09:00 1020 30.12 849 25.07 11.6 52.9 65 5.3 41.6
09:05 1020 30.12 849 25.07 11.8 53.3 67 5.8 42.5
09:10 1020 30.12 849 25.07 12.3 54.2 63 5.6 42.1
09:15 1020 30.12 849 25.07 12.9 55.1 63 6.1 43
09:20 1020 30.12 850 25.1 13.1 55.5 63 6.1 43
09:25 1020 30.12 849 25.07 13.7 56.6 59 5.9 42.6
09:30 1020 30.12 849 25.07 14.5 58.2 57 6.1 43
09:35 1020 30.12 849 25.07 15.5 59.8 54 6.3 43.4
09:40 1020 30.12 849 25.07 15.3 59.5 56 6.5 43.8
09:45 1020 30.12 849 25.07 15.8 60.4 54 6.5 43.8
09:50 1020 30.12 849 25.07 15.6 60 55 6.7 44.1
09:55 1020 30.12 850 25.1 16 60.7 54 6.8 44.2
10:00 1020 30.12 850 25.1 16.5 61.7 52 6.6 44
10:05 1020 30.12 849 25.07 16.4 61.6 48 5.4 41.8
10:10 1020 30.12 850 25.1 16.5 61.8 48 5.6 42
10:15 1020 30.12 850 25.1 17.1 62.8 48 6.1 42.9
10:20 1020 30.12 850 25.1 17.7 63.8 45 5.7 42.2
10:25 1020 30.12 849 25.07 18.2 64.7 32 1.5 34.7
10:30 1020 30.12 849 25.07 17.8 64.1 33 1.3 34.3
10:35 1020 30.12 849 25.07 17.9 64.3 32 1.3 34.3
10:40 1020 30.12 849 25.07 17.8 64 32 0.9 33.6
10:45 1020 30.12 849 25.07 17.8 64 32 0.8 33.4
10:50 1020 30.12 849 25.07 17.9 64.2 31 0.9 33.6
10:55 1020 30.12 849 25.07 17.7 63.9 31 0.6 33
11:00 1020 30.12 849 25.07 17.8 64 31 0.6 33.1
11:05 1020 30.12 849 25.07 17.8 64.1 30 0.3 32.6
11:10 1020 30.12 849 25.07 18 64.5 28 -0.4 31.3
11:15 1020 30.12 849 25.07 18.2 64.8 28 -0.6 31
11:20 1020 30.12 849 25.07 18.2 64.8 28 -0.6 31
11:25 1020 30.12 849 25.07 18.3 65 28 -0.2 31.7
11:30 1020 30.12 849 25.07 18.7 65.7 26 -0.8 30.5
11:35 1020 30.12 849 25.07 18.7 65.6 26 -0.9 30.4
11:40 1019 30.09 849 25.07 18.8 65.9 27 -0.5 31.1
11:45 1019 30.09 849 25.07 18.7 65.7 27 -0.7 30.7
11:50 1019 30.09 849 25.07 18.9 66 24 -1.8 28.8
11:55 1019 30.09 849 25.07 18.8 65.9 25 -1.4 29.4
12:00 1019 30.09 849 25.07 18.9 66 24 -1.9 28.6
12:05 1019 30.09 849 25.07 19 66.2 25 -1.2 29.9
12:10 1019 30.09 848 25.04 19.3 66.8 25 -1.1 30.1
12:15 1019 30.09 848 25.04 19.4 66.8 23 -2.2 28.1
12:20 1019 30.09 848 25.04 19.6 67.2 25 -0.8 30.5
12:25 1019 30.09 848 25.04 19.4 66.9 23 -2.1 28.1
12:30 1019 30.09 848 25.04 19.4 66.8 23 -2.4 27.8
12:35 1019 30.09 848 25.04 19.4 66.9 22 -2.4 27.6
12:40 1019 30.09 848 25.04 19.4 66.8 23 -2.1 28.2
12:45 1019 30.09 848 25.04 19.5 67.2 23 -1.7 28.9
12:50 1019 30.09 848 25.04 19.7 67.5 23 -1.8 28.7
12:55 1019 30.09 848 25.04 19.8 67.7 22 -2.5 27.6
13:00 1019 30.09 848 25.04 19.7 67.4 21 -2.9 26.7
13:05 1019 30.09 848 25.04 20.1 68.1 22 -2.4 27.7
13:10 1019 30.09 848 25.04 20.2 68.3 20 -3.3 26.1
13:15 1019 30.09 848 25.04 20 68 21 -2.5 27.4
13:20 1019 30.09 848 25.04 20.1 68.1 22 -2.3 27.8
13:25 1019 30.09 848 25.04 19.9 67.9 21 -2.6 27.3
13:30 1019 30.09 848 25.04 20.1 68.1 21 -2.9 26.8
13:35 1019 30.09 848 25.04 20.2 68.3 22 -2.1 28.2
13:40 1019 30.09 848 25.04 20.2 68.4 21 -2.9 26.8
13:45 1019 30.09 848 25.04 20.2 68.3 21 -3 26.6
13:50 1018 30.06 848 25.04 20.3 68.5 21 -2.9 26.8
13:55 1018 30.06 848 25.04 20 68.1 21 -2.6 27.3
14:00 1018 30.06 847 25.01 20.2 68.3 21 -2.8 27
14:05 1018 30.06 847 25.01 20.3 68.6 22 -2 28.5
14:10 1018 30.06 847 25.01 20.4 68.7 21 -2.3 27.9
14:15 1018 30.06 847 25.01 20.3 68.6 22 -2 28.3
14:20 1018 30.06 847 25.01 20.6 69.1 22 -1.6 29.1
14:25 1018 30.06 847 25.01 20.5 69 22 -1.6 29.1
14:30 1018 30.06 847 25.01 20.4 68.7 22 -2.1 28.2
14:35 1018 30.06 847 25.01 19.9 67.9 22 -2.2 28
14:40 1018 30.06 847 25.01 20.6 69 22 -2 28.4
14:45 1018 30.06 847 25.01 21.2 70.2 21 -1.8 28.8
14:50 1018 30.06 847 25.01 21.4 70.6 20 -2.1 28.2
14:55 1018 30.06 847 25.01 20.9 69.7 22 -1.5 29.3
15:00 1018 30.06 847 25.01 21.4 70.6 21 -1.4 29.4
15:05 1018 30.06 847 25.01 21.7 71.1 21 -1.5 29.2
15:10 1017 30.03 847 25.01 21.6 71 22 -0.6 30.9
15:15 1018 30.06 847 25.01 21.9 71.4 23 0.2 32.4
15:20 1018 30.06 847 25.01 21.5 70.6 20 -2.1 28.3
15:25 1017 30.03 847 25.01 21.5 70.6 20 -2.2 28
15:30 1017 30.03 847 25.01 21.3 70.3 20 -2.7 27.2
15:35 1017 30.03 846 24.98 21.3 70.4 20 -2.2 28.1
15:40 1017 30.03 846 24.98 21.5 70.8 20 -2.1 28.3
15:45 1017 30.03 847 25.01 21.4 70.4 20 -2.3 27.9
15:50 1017 30.03 847 25.01 21 69.8 21 -2.2 28
15:55 1017 30.03 847 25.01 21.2 70.2 20 -2.5 27.6
16:00 1017 30.03 846 24.98 21.2 70.2 21 -2 28.4
16:05 1017 30.03 846 24.98 21.2 70.1 21 -2 28.4
16:10 1017 30.03 846 24.98 21 69.7 21 -1.9 28.5
16:15 1017 30.03 846 24.98 20.9 69.6 22 -1.3 29.7
16:20 1017 30.03 846 24.98 21.8 71.2 21 -1 30.2
16:25 1017 30.03 846 24.98 22.7 72.8 20 -0.9 30.3
16:30 1017 30.03 846 24.98 22.5 72.6 22 -0.1 31.7
16:35 1017 30.03 846 24.98 21.5 70.7 23 -0.3 31.4
16:40 1017 30.03 846 24.98 20.5 68.8 24 -0.5 31.2
16:45 1017 30.03 846 24.98 20.2 68.4 22 -2 28.4
16:50 1017 30.03 846 24.98 20.2 68.3 22 -2.2 28.1
16:55 1017 30.03 846 24.98 20.7 69.3 22 -1.3 29.7
17:00 1017 30.03 846 24.98 21 69.8 22 -1.1 30.1
17:05 1017 30.03 846 24.98 21.7 71.1 23 -0.4 31.3
17:10 1017 30.03 846 24.98 21.7 71 22 -0.9 30.4
17:15 1017 30.03 846 24.98 21.3 70.3 23 -0.8 30.6
17:20 1017 30.03 846 24.98 21 69.8 23 -0.5 31.1
17:25 1017 30.03 846 24.98 20.6 69.1 24 -0.4 31.3
17:30 1017 30.03 846 24.98 20.5 68.9 24 -0.5 31.1
17:35 1017 30.03 846 24.98 20.2 68.4 25 -0.2 31.7
17:40 1017 30.03 846 24.98 19.8 67.6 26 -0.1 31.9
17:45 1017 30.03 846 24.98 19.5 67.1 27 0.1 32.1
17:50 1017 30.03 846 24.98 19.4 66.9 28 0.3 32.6
17:55 1017 30.03 846 24.98 19.1 66.4 28 0.1 32.2
18:00 1017 30.03 846 24.98 18.9 66.1 28 0.4 32.7
18:05 1017 30.03 846 24.98 18.8 65.8 29 0.6 33.1
18:10 1017 30.03 846 24.98 18.6 65.5 28 0.1 32.2
18:15 1017 30.03 846 24.98 18.5 65.2 29 0.1 32.1
18:20 1017 30.03 846 24.98 18.3 65 29 0.2 32.3
18:25 1017 30.03 846 24.98 18.2 64.8 30 0.3 32.6
18:30 1017 30.03 846 24.98 18 64.5 30 0.5 32.9
18:35 1017 30.03 846 24.98 17.8 64 31 0.5 32.8
18:40 1017 30.03 846 24.98 17.6 63.7 31 0.5 32.8
18:45 1017 30.03 846 24.98 17.5 63.5 31 0.5 32.9
18:50 1017 30.03 846 24.98 17.4 63.3 32 0.7 33.3
18:55 1017 30.03 846 24.98 17.1 62.7 33 0.7 33.3
19:00 1017 30.03 846 24.98 16.9 62.4 33 0.4 32.8
19:05 1017 30.03 846 24.98 16.9 62.4 32 0 32.1
19:10 1017 30.03 846 24.98 16.9 62.4 32 0.4 32.8
19:15 1017 30.03 846 24.98 16.6 61.8 34 0.7 33.2
19:20 1017 30.03 846 24.98 16.6 61.8 32 -0.3 31.5
19:25 1017 30.03 846 24.98 16.9 62.5 33 0.7 33.2
19:30 1017 30.03 846 24.98 16.6 61.9 32 0.1 32.2
19:35 1017 30.03 846 24.98 16.8 62.2 30 -0.7 30.7
19:40 1017 30.03 847 25.01 17.3 63.2 29 -1 30.2
19:45 1017 30.03 847 25.01 17.4 63.2 30 -0.5 31.2
19:50 1017 30.03 847 25.01 17.2 63 33 1 33.8
19:55 1018 30.06 847 25.01 17.1 62.7 30 -0.4 31.2
20:00 1018 30.06 847 25.01 16.9 62.4 31 -0.3 31.5
20:05 1018 30.06 847 25.01 16.8 62.2 32 0.2 32.3
20:10 1018 30.06 847 25.01 16.5 61.7 32 0.1 32.1
20:15 1018 30.06 847 25.01 16.4 61.5 34 0.5 32.9
20:20 1018 30.06 847 25.01 16.2 61.2 34 0.3 32.5
20:25 1018 30.06 847 25.01 16.2 61.2 32 -0.3 31.5
20:30 1018 30.06 847 25.01 16.3 61.3 34 0.4 32.6
20:35 1018 30.06 847 25.01 16.2 61.2 33 -0 31.9
20:40 1018 30.06 847 25.01 16 60.8 34 0.3 32.5
20:45 1018 30.06 847 25.01 15.9 60.6 35 0.4 32.6
20:50 1018 30.06 847 25.01 15.9 60.7 35 0.5 32.8
20:55 1018 30.06 847 25.01 15.6 60.2 35 0.3 32.5
21:00 1018 30.06 847 25.01 15.7 60.2 34 -0.1 31.8
21:05 1018 30.06 847 25.01 16 60.7 33 -0.1 31.8
21:10 1018 30.06 847 25.01 16 60.7 33 -0.2 31.7
21:15 1018 30.06 847 25.01 16.1 60.9 33 -0.3 31.5
21:20 1018 30.06 847 25.01 16.1 60.9 33 -0.1 31.9
21:25 1018 30.06 847 25.01 16.1 61 33 -0.3 31.5
21:30 1018 30.06 847 25.01 16 60.7 33 -0.3 31.5
21:35 1018 30.06 847 25.01 16 60.9 33 -0.1 31.8
21:40 1018 30.06 847 25.01 15.8 60.4 36 0.9 33.7
21:45 1018 30.06 847 25.01 15.8 60.4 34 -0.1 31.8
21:50 1018 30.06 847 25.01 15.9 60.5 34 0.2 32.3
21:55 1018 30.06 847 25.01 15.5 59.9 35 0.3 32.5
22:00 1018 30.06 847 25.01 15.4 59.8 36 0.5 33
22:05 1018 30.06 847 25.01 15.4 59.7 37 0.9 33.7
22:10 1018 30.06 847 25.01 15.2 59.3 37 0.6 33.1
22:15 1018 30.06 847 25.01 15.2 59.4 36 0.4 32.7
22:20 1018 30.06 847 25.01 15.4 59.7 37 1 33.8
22:25 1018 30.06 847 25.01 15.4 59.7 36 0.6 33.2
22:30 1018 30.06 847 25.01 15.4 59.7 36 0.5 33
22:35 1018 30.06 847 25.01 15.3 59.6 37 0.9 33.7
22:40 1018 30.06 847 25.01 15.1 59.2 38 0.9 33.6
22:45 1018 30.06 847 25.01 14.9 58.8 39 1.1 34
22:50 1018 30.06 847 25.01 14.8 58.7 39 1.2 34.2
22:55 1018 30.06 847 25.01 14.7 58.4 40 1.2 34.2
23:00 1018 30.06 847 25.01 14.4 57.9 40 1.1 34
23:05 1018 30.06 847 25.01 14.4 57.8 40 1.2 34.1
23:10 1018 30.06 847 25.01 14.3 57.7 41 1.1 34.1
23:15 1018 30.06 847 25.01 14.3 57.7 41 1.3 34.4
23:20 1018 30.06 847 25.01 14.2 57.6 41 1.1 34
23:25 1018 30.06 847 25.01 14.3 57.7 41 1.3 34.3
23:30 1018 30.06 847 25.01 14.3 57.7 40 0.9 33.7
23:35 1018 30.06 847 25.01 14.3 57.8 42 1.6 34.8
23:40 1018 30.06 847 25.01 14.3 57.7 43 1.8 35.2
23:45 1018 30.06 847 25.01 13.8 56.8 45 2 35.5
23:50 1018 30.06 847 25.01 13 55.4 47 2 35.6
23:55 1018 30.06 847 25.01 13 55.3 46 1.8 35.3
24:00 1018 30.06 847 25.01 13 55.4 47 2 35.5